createdAt,value
2018-09-08T00:00:00.697Z,7.90
2018-09-08T00:02:29.158Z,11.05
2018-09-08T00:04:57.823Z,9.68
2018-09-08T00:07:31.965Z,8.13
2018-09-08T00:10:00.829Z,7.20
2018-09-08T00:12:29.243Z,7.67
2018-09-08T00:15:03.002Z,10.43
2018-09-08T00:17:36.718Z,11.18
2018-09-08T00:20:10.586Z,9.60
2018-09-08T00:22:44.408Z,9.93
2018-09-08T00:25:18.245Z,12.43
2018-09-08T00:27:53.716Z,11.33
2018-09-08T00:30:22.212Z,13.45
2018-09-08T00:32:50.620Z,11.88
2018-09-08T00:35:19.136Z,8.45
2018-09-08T00:37:47.576Z,7.42
2018-09-08T00:40:16.038Z,9.65
2018-09-08T00:42:44.507Z,7.65
2018-09-08T00:45:12.965Z,9.10
2018-09-08T00:47:41.381Z,8.73
2018-09-08T00:50:09.821Z,7.87
2018-09-08T00:52:38.216Z,5.30
2018-09-08T00:55:06.704Z,7.67
2018-09-08T00:57:35.097Z,5.67
2018-09-08T01:00:03.536Z,5.22
2018-09-08T01:02:31.984Z,8.65
2018-09-08T01:05:00.413Z,7.67
2018-09-08T01:07:29.608Z,6.62
2018-09-08T01:09:59.290Z,6.20
2018-09-08T01:12:28.480Z,6.03
2018-09-08T01:14:56.956Z,5.87
2018-09-08T01:17:25.540Z,5.75
2018-09-08T01:19:54.046Z,5.33
2018-09-08T01:22:22.601Z,6.28
2018-09-08T01:24:50.747Z,7.25
2018-09-08T01:27:19.185Z,11.03
2018-09-08T01:29:47.617Z,6.65
2018-09-08T01:32:16.033Z,5.80
2018-09-08T01:34:44.501Z,9.28
2018-09-08T01:37:12.941Z,7.42
2018-09-08T01:39:41.333Z,7.00
2018-09-08T01:42:09.781Z,4.92
2018-09-08T01:44:38.189Z,4.85
2018-09-08T01:47:06.833Z,5.05
2018-09-08T01:49:35.258Z,4.22
2018-09-08T01:52:03.728Z,5.42
2018-09-08T01:54:32.140Z,5.17
2018-09-08T01:57:00.617Z,6.05
2018-09-08T01:59:29.077Z,6.08
2018-09-08T02:01:57.585Z,7.20
2018-09-08T02:04:26.003Z,6.80
2018-09-08T02:06:54.444Z,6.55
2018-09-08T02:09:22.856Z,6.37
2018-09-08T02:11:51.300Z,4.53
2018-09-08T02:14:19.680Z,6.67
2018-09-08T02:16:48.169Z,6.05
2018-09-08T02:19:16.583Z,5.00
2018-09-08T02:21:44.721Z,9.18
2018-09-08T02:24:13.135Z,10.98
2018-09-08T02:26:41.561Z,4.45
2018-09-08T02:29:09.967Z,8.03
2018-09-08T02:31:38.101Z,6.78
2018-09-08T02:34:06.548Z,7.33
2018-09-08T02:36:34.998Z,7.50
2018-09-08T02:39:03.443Z,7.37
2018-09-08T02:41:31.857Z,4.95
2018-09-08T02:44:00.260Z,6.95
2018-09-08T02:46:28.729Z,6.22
2018-09-08T02:48:57.130Z,6.37
2018-09-08T02:51:24.470Z,5.50
2018-09-08T02:53:52.050Z,6.58
2018-09-08T02:56:19.396Z,6.67
2018-09-08T02:58:46.709Z,6.90
2018-09-08T03:01:14.068Z,6.28
2018-09-08T03:03:41.381Z,5.80
2018-09-08T03:06:08.719Z,6.58
2018-09-08T03:08:36.053Z,5.47
2018-09-08T03:11:03.365Z,7.20
2018-09-08T03:13:31.047Z,6.78
2018-09-08T03:15:58.363Z,6.58
2018-09-08T03:18:25.713Z,8.90
2018-09-08T03:20:53.021Z,7.90
2018-09-08T03:23:20.372Z,11.68
2018-09-08T03:25:47.674Z,8.93
2018-09-08T03:28:15.019Z,5.22
2018-09-08T03:30:42.337Z,7.15
2018-09-08T03:33:09.678Z,5.75
2018-09-08T03:35:36.996Z,4.15
2018-09-08T03:38:04.334Z,7.55
2018-09-08T03:40:31.687Z,6.42
2018-09-08T03:42:59.054Z,6.03
2018-09-08T03:45:26.361Z,5.50
2018-09-08T03:47:53.698Z,3.98
2018-09-08T03:50:21.053Z,4.92
2018-09-08T03:52:48.393Z,8.48
2018-09-08T03:55:15.713Z,7.12
2018-09-08T03:57:43.059Z,6.05
2018-09-08T04:00:10.373Z,5.47
2018-09-08T04:02:38.824Z,6.70
2018-09-08T04:05:07.237Z,5.42
2018-09-08T04:07:35.693Z,6.90
2018-09-08T04:10:04.188Z,8.80
2018-09-08T04:12:32.648Z,6.90
2018-09-08T04:15:01.055Z,7.37
2018-09-08T04:17:29.512Z,5.97
2018-09-08T04:19:57.917Z,6.92
2018-09-08T04:22:31.788Z,7.60
2018-09-08T04:25:00.200Z,5.87
2018-09-08T04:27:28.611Z,8.13
2018-09-08T04:29:57.017Z,5.03
2018-09-08T04:32:25.448Z,6.42
2018-09-08T04:34:53.924Z,9.25
2018-09-08T04:37:22.398Z,7.78
2018-09-08T04:39:50.801Z,5.95
2018-09-08T04:42:19.192Z,14.73
2018-09-08T04:44:47.321Z,11.08
2018-09-08T04:47:15.717Z,5.00
2018-09-08T04:49:43.871Z,5.37
2018-09-08T04:52:12.268Z,8.25
2018-09-08T04:54:40.753Z,8.78
2018-09-08T04:57:09.152Z,6.08
2018-09-08T04:59:37.614Z,6.85
2018-09-08T05:02:06.064Z,8.10
2018-09-08T05:04:34.503Z,7.78
2018-09-08T05:07:02.912Z,6.17
2018-09-08T05:09:31.328Z,7.95
2018-09-08T05:11:59.772Z,7.58
2018-09-08T05:14:28.222Z,7.50
2018-09-08T05:16:56.632Z,7.33
2018-09-08T05:19:25.101Z,6.12
2018-09-08T05:21:53.660Z,8.65
2018-09-08T05:24:22.074Z,5.55
2018-09-08T05:26:50.483Z,8.73
2018-09-08T05:29:18.927Z,5.78
2018-09-08T05:31:47.356Z,6.67
2018-09-08T05:34:15.773Z,4.70
2018-09-08T05:36:44.175Z,5.87
2018-09-08T05:39:12.597Z,6.15
2018-09-08T05:41:40.695Z,4.20
2018-09-08T05:44:09.160Z,6.08
2018-09-08T05:46:37.565Z,4.80
2018-09-08T05:49:06.036Z,9.65
2018-09-08T05:51:34.529Z,11.95
2018-09-08T05:54:02.997Z,7.83
2018-09-08T05:56:31.419Z,7.40
2018-09-08T05:58:59.567Z,6.10
2018-09-08T06:01:28.113Z,7.62
2018-09-08T06:03:56.561Z,10.05
2018-09-08T06:06:25.009Z,8.93
2018-09-08T06:08:53.421Z,7.45
2018-09-08T06:11:21.866Z,8.65
2018-09-08T06:13:50.288Z,6.37
2018-09-08T06:16:18.736Z,5.25
2018-09-08T06:18:47.276Z,4.50
2018-09-08T06:21:15.687Z,4.45
2018-09-08T06:23:44.092Z,6.00
2018-09-08T06:26:12.548Z,5.70
2018-09-08T06:28:40.985Z,7.33
2018-09-08T06:31:09.104Z,5.67
2018-09-08T06:33:37.736Z,6.87
2018-09-08T06:36:07.000Z,5.78
2018-09-08T06:38:35.429Z,5.85
2018-09-08T06:41:03.856Z,5.25
2018-09-08T06:43:32.264Z,7.78
2018-09-08T06:46:00.756Z,8.10
2018-09-08T06:48:29.182Z,5.47
2018-09-08T06:50:57.600Z,5.78
2018-09-08T06:53:26.046Z,5.58
2018-09-08T06:55:54.568Z,6.67
2018-09-08T06:58:22.715Z,4.45
2018-09-08T07:00:51.404Z,8.13
2018-09-08T07:03:19.926Z,6.80
2018-09-08T07:05:48.353Z,4.17
2018-09-08T07:08:16.773Z,8.80
2018-09-08T07:10:45.473Z,7.30
2018-09-08T07:13:13.896Z,7.28
2018-09-08T07:15:42.309Z,4.67
2018-09-08T07:18:10.790Z,6.03
2018-09-08T07:20:39.213Z,5.65
2018-09-08T07:23:07.660Z,5.60
2018-09-08T07:25:36.081Z,5.05
2018-09-08T07:28:04.556Z,6.72
2018-09-08T07:30:32.712Z,5.15
2018-09-08T07:33:01.133Z,4.22
2018-09-08T07:35:29.559Z,5.55
2018-09-08T07:37:58.166Z,4.15
2018-09-08T07:40:26.721Z,4.00
2018-09-08T07:42:55.166Z,4.28
2018-09-08T07:45:23.584Z,3.75
2018-09-08T07:47:52.025Z,8.03
2018-09-08T07:50:20.562Z,3.83
2018-09-08T07:52:49.572Z,4.53
2018-09-08T07:55:18.193Z,6.65
2018-09-08T07:57:46.561Z,2.87
2018-09-08T08:00:14.990Z,2.42
2018-09-08T08:02:43.576Z,3.17
2018-09-08T08:05:11.981Z,3.10
2018-09-08T08:07:40.465Z,2.10
2018-09-08T08:10:08.948Z,4.40
2018-09-08T08:12:37.351Z,2.12
2018-09-08T08:15:06.483Z,2.33
2018-09-08T08:17:34.958Z,2.05
2018-09-08T08:20:03.478Z,3.08
2018-09-08T08:22:32.106Z,2.72
2018-09-08T08:25:00.585Z,1.67
2018-09-08T08:27:28.997Z,2.80
2018-09-08T08:29:57.443Z,2.52
2018-09-08T08:32:25.850Z,3.85
2018-09-08T08:34:54.282Z,3.92
2018-09-08T08:37:22.745Z,2.33
2018-09-08T08:39:51.224Z,2.33
2018-09-08T08:42:19.366Z,3.37
2018-09-08T08:44:47.844Z,2.45
2018-09-08T08:47:16.378Z,5.25
2018-09-08T08:49:45.732Z,3.77
2018-09-08T08:52:25.427Z,3.10
2018-09-08T08:54:55.256Z,2.72
2018-09-08T08:57:23.360Z,2.87
2018-09-08T08:59:51.789Z,4.42
2018-09-08T09:02:20.233Z,2.75
2018-09-08T09:04:48.670Z,3.30
2018-09-08T09:07:17.403Z,4.25
2018-09-08T09:09:45.537Z,3.27
2018-09-08T09:12:13.944Z,3.42
2018-09-08T09:14:42.388Z,4.90
2018-09-08T09:17:10.579Z,3.37
2018-09-08T09:19:50.325Z,3.80
2018-09-08T09:22:30.068Z,4.08
2018-09-08T09:25:05.825Z,4.37
2018-09-08T09:27:36.648Z,3.00
2018-09-08T09:30:05.576Z,2.02
2018-09-08T09:32:33.994Z,2.42
2018-09-08T09:35:02.517Z,2.37
2018-09-08T09:37:30.944Z,3.62
2018-09-08T09:40:00.060Z,2.83
2018-09-08T09:42:28.513Z,4.25
2018-09-08T09:44:56.943Z,3.40
2018-09-08T09:47:25.394Z,4.37
2018-09-08T09:49:53.814Z,4.00
2018-09-08T09:52:21.960Z,3.45
2018-09-08T09:54:50.386Z,3.25
2018-09-08T09:57:18.880Z,3.92
2018-09-08T09:59:47.352Z,3.02
2018-09-08T10:02:46.056Z,3.02
2018-09-08T10:05:16.473Z,4.17
2018-09-08T10:07:44.957Z,5.28
2018-09-08T10:10:15.081Z,4.15
2018-09-08T10:12:43.561Z,3.35
2018-09-08T10:15:12.009Z,4.67
2018-09-08T10:17:41.248Z,2.40
2018-09-08T10:20:11.803Z,2.58
2018-09-08T10:22:40.309Z,4.15
2018-09-08T10:25:11.077Z,3.52
2018-09-08T10:27:39.555Z,3.33
2018-09-08T10:30:09.012Z,2.92
2018-09-08T10:32:37.509Z,3.00
2018-09-08T10:35:05.652Z,3.30
2018-09-08T10:40:51.596Z,2.37
2018-09-08T10:43:20.115Z,2.20
2018-09-08T10:45:48.534Z,2.85
2018-09-08T10:48:16.665Z,3.72
2018-09-08T10:50:44.784Z,2.77
2018-09-08T10:53:13.240Z,2.83
2018-09-08T10:55:41.647Z,2.85
2018-09-08T10:58:10.126Z,3.15
2018-09-08T11:00:38.293Z,3.08
2018-09-08T11:03:06.870Z,3.35
2018-09-08T11:05:35.260Z,4.80
2018-09-08T11:08:03.699Z,4.75
2018-09-08T11:10:32.141Z,4.95
2018-09-08T11:13:00.289Z,4.42
2018-09-08T11:15:28.733Z,4.12
2018-09-08T11:17:57.036Z,3.92
2018-09-08T11:20:25.434Z,3.50
2018-09-08T11:22:53.880Z,3.90
2018-09-08T11:25:22.415Z,3.00
2018-09-08T11:27:50.869Z,3.17
2018-09-08T11:30:19.315Z,2.98
2018-09-08T11:32:47.759Z,3.62
2018-09-08T11:35:16.149Z,2.55
2018-09-08T11:37:44.573Z,3.47
2018-09-08T11:40:12.981Z,2.62
2018-09-08T11:42:41.132Z,4.58
2018-09-08T11:45:09.537Z,2.98
2018-09-08T11:47:37.970Z,2.52
2018-09-08T11:50:06.457Z,3.17
2018-09-08T11:52:34.901Z,2.92
2018-09-08T11:55:03.352Z,6.12
2018-09-08T11:57:31.778Z,3.52
2018-09-08T11:59:59.929Z,2.95
2018-09-08T12:02:28.461Z,2.58
2018-09-08T12:04:56.603Z,2.30
2018-09-08T12:07:25.207Z,3.45
2018-09-08T12:09:53.661Z,3.20
2018-09-08T12:12:22.079Z,2.37
2018-09-08T12:14:50.517Z,2.00
2018-09-08T12:17:18.644Z,2.70
2018-09-08T12:19:47.102Z,2.17
2018-09-08T12:22:15.568Z,2.72
2018-09-08T12:24:43.988Z,2.10
2018-09-08T12:27:12.591Z,2.50
2018-09-08T12:29:40.998Z,2.75
2018-09-08T12:32:09.406Z,4.10
2018-09-08T12:34:37.825Z,2.47
2018-09-08T12:37:06.255Z,3.37
2018-09-08T12:39:34.720Z,2.85
2018-09-08T12:42:03.129Z,2.22
2018-09-08T12:44:31.547Z,3.77
2018-09-08T12:46:59.950Z,3.70
2018-09-08T12:49:28.539Z,2.30
2018-09-08T12:51:56.970Z,2.22
2018-09-08T12:54:25.409Z,2.05
2018-09-08T12:56:53.857Z,2.55
2018-09-08T12:59:22.380Z,2.17
2018-09-08T13:01:50.797Z,2.00
2018-09-08T13:04:18.975Z,2.42
2018-09-08T13:06:47.380Z,2.22
2018-09-08T13:09:15.848Z,2.25
2018-09-08T13:11:44.296Z,3.47
2018-09-08T13:14:12.767Z,2.85
2018-09-08T13:16:41.170Z,3.33
2018-09-08T13:19:09.720Z,3.00
2018-09-08T13:21:38.117Z,3.10
2018-09-08T13:24:06.620Z,2.20
2018-09-08T13:26:34.991Z,3.10
2018-09-08T13:29:03.457Z,3.08
2018-09-08T13:31:31.596Z,2.35
2018-09-08T13:34:00.034Z,2.58
2018-09-08T13:36:28.144Z,2.35
2018-09-08T13:38:56.596Z,1.92
2018-09-08T13:41:25.090Z,1.95
2018-09-08T13:43:53.800Z,2.90
2018-09-08T13:46:22.194Z,2.52
2018-09-08T13:48:50.593Z,1.77
2018-09-08T13:51:19.020Z,2.25
2018-09-08T13:53:47.420Z,1.92
2018-09-08T13:56:15.850Z,2.80
2018-09-08T13:58:44.273Z,1.70
2018-09-08T14:01:12.719Z,2.22
2018-09-08T14:03:41.231Z,1.70
2018-09-08T14:06:10.074Z,2.00
2018-09-08T14:08:38.565Z,2.05
2018-09-08T14:11:07.060Z,4.45
2018-09-08T14:13:35.186Z,2.20
2018-09-08T14:16:03.698Z,1.82
2018-09-08T14:18:31.800Z,1.80
2018-09-08T14:21:00.257Z,1.92
2018-09-08T14:23:28.685Z,3.05
2018-09-08T14:25:57.373Z,1.87
2018-09-08T14:28:25.805Z,1.62
2018-09-08T14:30:54.238Z,1.67
2018-09-08T14:33:22.645Z,2.87
2018-09-08T14:35:51.069Z,2.25
2018-09-08T14:38:19.478Z,6.80
2018-09-08T14:40:47.941Z,2.75
2018-09-08T14:43:16.390Z,2.08
2018-09-08T14:45:44.947Z,1.90
2018-09-08T14:48:13.076Z,1.82
2018-09-08T14:50:42.082Z,1.60
2018-09-08T14:53:10.484Z,2.47
2018-09-08T14:55:38.921Z,1.95
2018-09-08T14:58:07.329Z,3.50
2018-09-08T15:00:35.769Z,1.98
2018-09-08T15:03:04.261Z,5.87
2018-09-08T15:05:32.703Z,1.87
2018-09-08T15:08:01.128Z,1.85
2018-09-08T15:10:29.608Z,3.17
2018-09-08T15:12:58.247Z,2.15
2018-09-08T15:15:26.697Z,1.60
2018-09-08T15:17:55.289Z,2.30
2018-09-08T15:20:23.728Z,1.85
2018-09-08T15:22:52.280Z,2.47
2018-09-08T15:25:20.986Z,1.98
2018-09-08T15:27:49.589Z,2.20
2018-09-08T15:30:17.992Z,3.20
2018-09-08T15:32:46.206Z,1.85
2018-09-08T15:35:14.833Z,1.62
2018-09-08T15:37:43.349Z,2.27
2018-09-08T15:40:11.778Z,2.10
2018-09-08T15:42:40.231Z,1.90
2018-09-08T15:45:08.625Z,2.02
2018-09-08T15:47:37.092Z,2.00
2018-09-08T15:50:05.825Z,2.22
2018-09-08T15:52:34.296Z,2.10
2018-09-08T15:55:02.842Z,1.98
2018-09-08T15:57:31.382Z,3.10
2018-09-08T15:59:59.817Z,10.30
2018-09-08T16:02:27.981Z,6.10
2018-09-08T16:04:56.260Z,4.85
2018-09-08T16:07:24.710Z,2.33
2018-09-08T16:09:53.125Z,2.22
2018-09-08T16:12:21.640Z,2.22
2018-09-08T16:14:50.088Z,3.27
2018-09-08T16:17:18.538Z,2.52
2018-09-08T16:19:46.943Z,2.10
2018-09-08T16:22:15.397Z,1.77
2018-09-08T16:24:48.984Z,2.98
2018-09-08T16:27:17.481Z,2.52
2018-09-08T16:29:45.989Z,1.90
2018-09-08T16:32:14.420Z,2.05
2018-09-08T16:34:42.913Z,4.80
2018-09-08T16:37:11.349Z,3.75
2018-09-08T16:39:39.744Z,2.67
2018-09-08T16:42:08.193Z,1.60
2018-09-08T16:44:36.579Z,2.47
2018-09-08T16:47:04.721Z,2.22
2018-09-08T16:49:33.137Z,3.17
2018-09-08T16:52:01.614Z,3.22
2018-09-08T16:54:30.027Z,2.62
2018-09-08T16:56:58.460Z,2.67
2018-09-08T16:59:26.846Z,2.50
2018-09-08T17:01:55.265Z,2.17
2018-09-08T17:04:23.724Z,3.62
2018-09-08T17:06:52.209Z,6.20
2018-09-08T17:09:20.617Z,3.70
2018-09-08T17:11:49.058Z,2.27
2018-09-08T17:14:17.542Z,3.52
2018-09-08T17:16:45.943Z,2.33
2018-09-08T17:19:14.437Z,2.72
2018-09-08T17:21:42.865Z,4.12
2018-09-08T17:24:11.351Z,4.28
2018-09-08T17:26:39.448Z,2.95
2018-09-08T17:29:08.023Z,3.20
2018-09-08T17:31:36.156Z,2.65
2018-09-08T17:34:04.646Z,3.17
2018-09-08T17:36:33.060Z,4.78
2018-09-08T17:39:01.661Z,4.35
2018-09-08T17:41:29.620Z,3.27
2018-09-08T17:43:58.081Z,4.50
2018-09-08T17:46:27.489Z,6.62
2018-09-08T17:48:56.026Z,3.37
2018-09-08T17:51:24.454Z,3.52
2018-09-08T17:53:52.895Z,6.53
2018-09-08T17:56:21.320Z,7.05
2018-09-08T17:58:49.851Z,3.12
2018-09-08T18:01:19.324Z,3.65
2018-09-08T18:03:49.152Z,4.00
2018-09-08T18:06:17.825Z,5.97
2018-09-08T18:08:46.237Z,6.25
2018-09-08T18:11:14.653Z,2.58
2018-09-08T18:13:43.096Z,3.33
2018-09-08T18:16:11.205Z,4.12
2018-09-08T18:18:39.337Z,4.03
2018-09-08T18:21:07.817Z,7.05
2018-09-08T18:23:36.272Z,5.85
2018-09-08T18:26:04.725Z,3.27
2018-09-08T18:28:33.173Z,4.65
2018-09-08T18:31:01.561Z,6.50
2018-09-08T18:33:30.028Z,6.10
2018-09-08T18:35:59.973Z,7.53
2018-09-08T18:38:28.166Z,7.37
2018-09-08T18:40:56.600Z,4.90
2018-09-08T18:43:24.730Z,5.28
2018-09-08T18:45:53.144Z,4.72
2018-09-08T18:48:21.348Z,16.30
2018-09-08T18:50:49.789Z,23.60
2018-09-08T18:53:18.294Z,14.23
2018-09-08T18:55:46.872Z,11.53
2018-09-08T18:58:15.546Z,17.37
2018-09-08T19:00:44.232Z,13.05
2018-09-08T19:03:12.942Z,16.52
2018-09-08T19:05:41.413Z,15.58
2018-09-08T19:08:09.824Z,10.58
2018-09-08T19:10:37.963Z,6.37
2018-09-08T19:13:06.405Z,24.12
2018-09-08T19:15:34.881Z,29.32
2018-09-08T19:18:04.229Z,31.52
2018-09-08T19:20:36.748Z,37.45
2018-09-08T19:23:05.597Z,12.13
2018-09-08T19:25:34.315Z,25.68
2018-09-08T19:28:03.154Z,11.45
2018-09-08T19:30:31.368Z,11.33
2018-09-08T19:32:59.762Z,9.78
2018-09-08T19:35:33.140Z,9.93
2018-09-08T19:38:01.542Z,9.40
2018-09-08T19:40:35.354Z,8.93
2018-09-08T19:43:03.765Z,5.87
2018-09-08T19:45:32.243Z,6.30
2018-09-08T19:48:04.680Z,7.42
2018-09-08T19:50:33.480Z,6.50
2018-09-08T19:53:07.117Z,4.62
2018-09-08T19:55:35.549Z,6.45
2018-09-08T19:58:09.450Z,6.60
2018-09-08T20:00:37.892Z,5.72
2018-09-08T20:03:06.916Z,3.52
2018-09-08T20:05:35.392Z,7.33
2018-09-08T20:08:03.849Z,6.55
2018-09-08T20:10:32.345Z,4.35
2018-09-08T20:13:00.746Z,5.22
2018-09-08T20:15:29.185Z,6.17
2018-09-08T20:17:57.619Z,5.85
2018-09-08T20:20:26.061Z,8.93
2018-09-08T20:22:54.453Z,11.68
2018-09-08T20:25:22.880Z,21.75
2018-09-08T20:27:51.319Z,28.57
2018-09-08T20:30:19.805Z,31.85
2018-09-08T20:32:48.201Z,44.33
2018-09-08T20:35:16.624Z,42.10
2018-09-08T20:37:45.032Z,31.50
2018-09-08T20:40:13.461Z,31.93
2018-09-08T20:42:41.905Z,17.85
2018-09-08T20:45:10.316Z,10.15
2018-09-08T20:47:38.835Z,10.43
2018-09-08T20:50:07.316Z,5.75
2018-09-08T20:52:35.729Z,4.62
2018-09-08T20:55:04.226Z,4.92
2018-09-08T20:57:32.657Z,5.15
2018-09-08T21:00:01.068Z,5.58
2018-09-08T21:02:29.537Z,3.62
2018-09-08T21:04:57.963Z,4.20
2018-09-08T21:07:26.426Z,5.33
2018-09-08T21:09:54.833Z,3.67
2018-09-08T21:12:23.264Z,6.03
2018-09-08T21:14:51.706Z,3.12
2018-09-08T21:17:20.136Z,3.22
2018-09-08T21:19:48.526Z,6.08
2018-09-08T21:22:16.949Z,4.03
2018-09-08T21:24:45.391Z,4.30
2018-09-08T21:27:13.825Z,3.70
2018-09-08T21:29:42.008Z,4.90
2018-09-08T21:32:10.475Z,3.55
2018-09-08T21:34:38.888Z,5.05
2018-09-08T21:37:07.318Z,4.42
2018-09-08T21:39:35.736Z,3.95
2018-09-08T21:42:04.180Z,3.67
2018-09-08T21:44:32.601Z,3.15
2018-09-08T21:47:05.911Z,5.00
2018-09-08T21:49:29.507Z,4.25
2018-09-08T21:51:57.932Z,9.23
2018-09-08T21:54:26.333Z,5.53
2018-09-08T21:56:54.779Z,5.53
2018-09-08T21:59:23.281Z,4.12
2018-09-08T22:01:51.701Z,4.72
2018-09-08T22:04:20.125Z,4.12
2018-09-08T22:06:48.591Z,4.55
2018-09-08T22:09:17.034Z,4.05
2018-09-08T22:11:45.493Z,3.40
2018-09-08T22:14:13.904Z,3.50
2018-09-08T22:16:42.347Z,7.20
2018-09-08T22:19:10.800Z,3.95
2018-09-08T22:21:39.237Z,4.40
2018-09-08T22:24:07.733Z,5.15
2018-09-08T22:26:36.243Z,3.22
2018-09-08T22:29:05.894Z,4.50
2018-09-08T22:31:34.361Z,6.70
2018-09-08T22:34:02.782Z,4.33
2018-09-08T22:36:31.217Z,7.35
2018-09-08T22:38:59.628Z,7.70
2018-09-08T22:41:28.078Z,4.70
2018-09-08T22:43:56.502Z,3.77
2018-09-08T22:46:24.953Z,5.78
2018-09-08T22:48:53.398Z,4.45
2018-09-08T22:51:21.867Z,5.35
2018-09-08T22:53:50.265Z,4.17
2018-09-08T22:56:18.431Z,7.47
2018-09-08T22:58:47.009Z,4.33
2018-09-08T23:01:15.437Z,5.33
2018-09-08T23:03:43.878Z,4.35
2018-09-08T23:06:12.357Z,4.83
2018-09-08T23:08:40.804Z,7.00
2018-09-08T23:11:09.225Z,5.03
2018-09-08T23:13:37.379Z,6.40
2018-09-08T23:16:05.982Z,4.53
2018-09-08T23:18:34.205Z,5.35
2018-09-08T23:21:02.609Z,5.15
2018-09-08T23:23:31.041Z,5.03
2018-09-08T23:25:59.459Z,6.37
2018-09-08T23:28:27.905Z,4.72
2018-09-08T23:30:56.309Z,4.65
2018-09-08T23:33:24.436Z,3.40
2018-09-08T23:35:52.561Z,4.87
2018-09-08T23:38:21.082Z,5.28
2018-09-08T23:40:49.518Z,5.42
2018-09-08T23:43:17.975Z,4.50
2018-09-08T23:45:46.749Z,8.38
2018-09-08T23:48:15.204Z,7.05
2018-09-08T23:50:43.596Z,6.72
2018-09-08T23:53:12.093Z,9.15
2018-09-08T23:55:40.529Z,5.53
2018-09-08T23:58:08.959Z,9.35
